createdAt,value
2023-03-12T00:02:19.028Z,4.07
2023-03-12T00:05:22.563Z,4.22
2023-03-12T00:08:24.625Z,3.03
2023-03-12T00:11:26.905Z,2.58
2023-03-12T00:14:28.993Z,5.97
2023-03-12T00:17:31.283Z,3.30
2023-03-12T00:20:33.444Z,2.67
2023-03-12T00:23:37.007Z,2.72
2023-03-12T00:26:39.400Z,3.55
2023-03-12T00:29:41.670Z,2.28
2023-03-12T00:32:43.809Z,2.15
2023-03-12T00:35:46.468Z,8.95
2023-03-12T00:38:48.537Z,8.63
2023-03-12T00:41:50.796Z,5.88
2023-03-12T00:44:53.021Z,9.48
2023-03-12T00:47:55.375Z,6.72
2023-03-12T00:50:57.420Z,3.38
2023-03-12T00:53:59.836Z,4.18
2023-03-12T00:57:01.851Z,3.00
2023-03-12T01:00:10.155Z,5.22
2023-03-12T01:03:12.414Z,2.38
2023-03-12T01:06:14.820Z,8.27
2023-03-12T01:09:17.414Z,4.72
2023-03-12T01:12:19.751Z,5.28
2023-03-12T01:15:21.809Z,2.67
2023-03-12T01:18:24.143Z,3.17
2023-03-12T01:21:27.606Z,5.38
2023-03-12T01:24:30.008Z,3.50
2023-03-12T01:27:32.243Z,3.25
2023-03-12T01:30:34.712Z,5.75
2023-03-12T01:33:36.959Z,3.35
2023-03-12T01:36:39.341Z,3.83
2023-03-12T01:39:41.496Z,6.10
2023-03-12T01:42:43.943Z,3.28
2023-03-12T01:46:08.012Z,5.22
2023-03-12T01:49:18.709Z,4.13
2023-03-12T01:52:29.338Z,3.35
2023-03-12T01:55:31.916Z,3.30
2023-03-12T01:58:38.060Z,5.55
2023-03-12T02:01:41.860Z,2.08
2023-03-12T02:04:45.428Z,4.43
2023-03-12T02:07:49.197Z,5.15
2023-03-12T02:10:52.212Z,3.85
2023-03-12T02:13:55.176Z,4.55
2023-03-12T02:16:58.043Z,3.47
2023-03-12T02:20:12.691Z,3.25
2023-03-12T02:23:26.473Z,1.95
2023-03-12T02:26:31.066Z,2.67
2023-03-12T02:29:37.109Z,1.73
2023-03-12T02:32:39.902Z,3.08
2023-03-12T02:35:43.241Z,3.95
2023-03-12T02:38:48.794Z,2.08
2023-03-12T02:41:57.879Z,2.33
2023-03-12T02:45:02.310Z,4.18
2023-03-12T02:48:08.764Z,3.72
2023-03-12T02:51:11.413Z,2.30
2023-03-12T02:54:15.200Z,1.45
2023-03-12T02:57:17.977Z,2.97
2023-03-12T03:00:20.800Z,2.53
2023-03-12T03:03:26.962Z,1.77
2023-03-12T03:06:29.380Z,5.72
2023-03-12T03:09:31.739Z,3.30
2023-03-12T03:12:35.952Z,3.92
2023-03-12T03:15:39.547Z,3.90
2023-03-12T03:18:41.591Z,2.70
2023-03-12T03:21:44.168Z,5.88
2023-03-12T03:24:46.233Z,4.20
2023-03-12T03:27:48.797Z,3.03
2023-03-12T03:30:53.951Z,4.55
2023-03-12T03:33:56.535Z,4.38
2023-03-12T03:36:58.991Z,4.93
2023-03-12T03:40:01.197Z,5.63
2023-03-12T03:43:03.538Z,2.58
2023-03-12T03:46:06.193Z,2.10
2023-03-12T03:49:12.711Z,3.63
2023-03-12T03:55:19.171Z,5.40
2023-03-12T03:58:21.877Z,3.65
2023-03-12T04:01:23.911Z,2.35
2023-03-12T04:04:27.353Z,2.85
2023-03-12T04:07:29.582Z,3.40
2023-03-12T04:10:32.632Z,2.75
2023-03-12T04:13:35.023Z,2.53
2023-03-12T04:16:37.568Z,4.70
2023-03-12T04:19:40.241Z,6.30
2023-03-12T04:22:42.586Z,3.90
2023-03-12T04:25:45.610Z,3.58
2023-03-12T04:28:47.980Z,4.78
2023-03-12T04:31:50.367Z,2.35
2023-03-12T04:34:52.711Z,2.45
2023-03-12T04:37:55.582Z,2.08
2023-03-12T04:41:05.484Z,4.57
2023-03-12T04:44:09.469Z,1.98
2023-03-12T04:47:13.281Z,3.33
2023-03-12T04:50:15.408Z,4.65
2023-03-12T04:53:18.578Z,5.32
2023-03-12T04:56:22.180Z,4.53
2023-03-12T04:59:24.640Z,4.97
2023-03-12T05:02:27.752Z,4.13
2023-03-12T05:05:30.310Z,3.67
2023-03-12T05:08:33.334Z,4.93
2023-03-12T05:11:39.157Z,7.22
2023-03-12T05:14:42.551Z,4.00
2023-03-12T05:17:45.093Z,5.07
2023-03-12T05:20:48.137Z,4.78
2023-03-12T05:23:50.780Z,2.58
2023-03-12T05:26:53.031Z,2.70
2023-03-12T05:29:58.960Z,3.45
2023-03-12T05:33:01.753Z,3.17
2023-03-12T05:36:05.372Z,4.18
2023-03-12T05:39:07.695Z,4.90
2023-03-12T05:42:11.224Z,3.67
2023-03-12T05:45:13.714Z,4.22
2023-03-12T05:48:21.503Z,5.47
2023-03-12T05:51:25.017Z,3.65
2023-03-12T05:54:27.585Z,3.13
2023-03-12T05:57:30.091Z,3.97
2023-03-12T06:00:35.905Z,3.08
2023-03-12T06:03:38.389Z,2.38
2023-03-12T06:06:40.882Z,3.85
2023-03-12T06:09:43.113Z,2.30
2023-03-12T06:12:46.980Z,1.83
2023-03-12T06:15:49.596Z,5.45
2023-03-12T06:18:57.176Z,3.47
2023-03-12T06:21:59.269Z,2.70
2023-03-12T06:25:04.138Z,4.00
2023-03-12T06:28:06.202Z,2.53
2023-03-12T06:31:09.131Z,3.28
2023-03-12T06:34:12.759Z,3.72
2023-03-12T06:37:15.086Z,4.82
2023-03-12T06:40:17.995Z,3.10
2023-03-12T06:43:20.300Z,3.83
2023-03-12T06:46:23.785Z,2.55
2023-03-12T06:49:27.581Z,1.98
2023-03-12T06:52:29.545Z,2.92
2023-03-12T06:55:31.888Z,2.40
2023-03-12T06:58:33.887Z,4.22
2023-03-12T07:01:36.153Z,7.18
2023-03-12T07:04:38.230Z,4.28
2023-03-12T07:07:40.533Z,4.25
2023-03-12T07:10:42.550Z,5.18
2023-03-12T07:13:44.823Z,3.53
2023-03-12T07:16:47.321Z,4.28
2023-03-12T07:19:49.944Z,2.67
2023-03-12T07:22:51.918Z,2.45
2023-03-12T07:25:54.700Z,1.77
2023-03-12T07:28:56.617Z,3.45
2023-03-12T07:31:58.902Z,2.65
2023-03-12T07:35:00.956Z,2.10
2023-03-12T07:38:03.357Z,2.20
2023-03-12T07:41:05.487Z,2.85
2023-03-12T07:44:08.198Z,2.67
2023-03-12T07:47:23.240Z,4.97
2023-03-12T07:50:26.232Z,3.22
2023-03-12T07:53:28.225Z,5.22
2023-03-12T07:56:30.593Z,2.83
2023-03-12T07:59:33.510Z,1.90
2023-03-12T08:02:35.876Z,2.13
2023-03-12T08:05:38.101Z,3.50
2023-03-12T08:08:42.507Z,2.22
2023-03-12T08:11:44.752Z,2.47
2023-03-12T08:14:47.727Z,1.77
2023-03-12T08:17:49.912Z,2.20
2023-03-12T08:20:54.102Z,2.10
2023-03-12T08:23:56.001Z,2.20
2023-03-12T08:26:58.473Z,2.53
2023-03-12T08:30:01.330Z,1.45
2023-03-12T08:33:05.120Z,1.80
2023-03-12T08:36:07.717Z,1.88
2023-03-12T08:39:10.122Z,2.85
2023-03-12T08:42:11.989Z,3.28
2023-03-12T08:45:15.833Z,4.70
2023-03-12T08:48:17.796Z,2.22
2023-03-12T08:51:20.309Z,7.97
2023-03-12T08:54:22.372Z,2.92
2023-03-12T08:57:25.095Z,2.38
2023-03-12T09:00:27.642Z,5.22
2023-03-12T09:03:30.155Z,2.63
2023-03-12T09:06:34.285Z,6.35
2023-03-12T09:09:36.689Z,2.95
2023-03-12T09:12:39.023Z,7.68
2023-03-12T09:15:41.347Z,7.03
2023-03-12T09:18:44.520Z,11.25
2023-03-12T09:21:49.857Z,7.55
2023-03-12T09:24:52.641Z,2.10
2023-03-12T09:27:55.054Z,2.97
2023-03-12T09:30:59.606Z,9.68
2023-03-12T09:34:08.415Z,8.25
2023-03-12T09:37:10.433Z,11.40
2023-03-12T09:40:19.907Z,13.93
2023-03-12T09:43:33.063Z,25.77
2023-03-12T09:46:49.090Z,21.77
2023-03-12T09:49:59.270Z,18.55
2023-03-12T09:53:11.480Z,16.02
2023-03-12T09:56:17.293Z,17.13
2023-03-12T09:59:20.029Z,15.50
2023-03-12T10:02:40.482Z,18.13
2023-03-12T10:05:44.658Z,18.58
2023-03-12T10:09:08.035Z,14.32
2023-03-12T10:12:33.285Z,15.80
2023-03-12T10:15:53.807Z,14.80
2023-03-12T10:19:05.996Z,8.20
2023-03-12T10:22:48.620Z,8.18
2023-03-12T10:26:19.155Z,9.55
2023-03-12T10:29:34.539Z,15.68
2023-03-12T10:32:39.698Z,7.72
2023-03-12T10:35:42.311Z,10.02
2023-03-12T10:38:44.860Z,12.80
2023-03-12T10:41:48.566Z,8.63
2023-03-12T10:45:13.478Z,10.75
2023-03-12T10:48:26.224Z,11.70
2023-03-12T10:51:28.814Z,8.73
2023-03-12T10:54:40.937Z,8.48
2023-03-12T10:57:43.379Z,8.48
2023-03-12T11:00:58.351Z,9.48
2023-03-12T11:04:25.070Z,10.40
2023-03-12T11:07:35.887Z,7.10
2023-03-12T11:10:46.212Z,7.28
2023-03-12T11:14:07.088Z,5.90
2023-03-12T11:17:21.823Z,6.05
2023-03-12T11:20:30.300Z,9.07
2023-03-12T11:23:32.725Z,9.10
2023-03-12T11:26:43.486Z,7.57
2023-03-12T11:29:49.148Z,5.68
2023-03-12T11:32:51.969Z,6.85
2023-03-12T11:36:18.125Z,5.35
2023-03-12T11:39:20.820Z,6.43
2023-03-12T11:42:51.758Z,9.38
2023-03-12T11:46:18.295Z,5.30
2023-03-12T11:49:38.927Z,7.90
2023-03-12T11:52:55.661Z,10.32
2023-03-12T11:56:10.510Z,8.57
2023-03-12T11:59:20.294Z,6.65
2023-03-12T12:02:43.232Z,5.00
2023-03-12T12:05:54.767Z,7.75
2023-03-12T12:09:09.754Z,7.32
2023-03-12T12:12:20.132Z,11.55
2023-03-12T12:15:34.293Z,11.18
2023-03-12T12:18:56.728Z,10.48
2023-03-12T12:22:18.247Z,8.95
2023-03-12T12:25:20.400Z,7.95
2023-03-12T12:28:37.844Z,10.45
2023-03-12T12:31:49.148Z,8.13
2023-03-12T12:35:14.237Z,9.95
2023-03-12T12:38:39.686Z,8.80
2023-03-12T12:41:48.064Z,7.72
2023-03-12T12:44:55.295Z,11.93
2023-03-12T12:48:03.985Z,11.00
2023-03-12T12:51:08.945Z,10.27
2023-03-12T12:54:31.605Z,15.75
2023-03-12T12:57:38.057Z,9.70
2023-03-12T13:00:53.602Z,9.85
2023-03-12T13:04:05.678Z,12.30
2023-03-12T13:07:14.288Z,12.23
2023-03-12T13:10:34.776Z,9.63
2023-03-12T13:13:37.211Z,12.75
2023-03-12T13:16:46.255Z,15.32
2023-03-12T13:19:59.059Z,11.40
2023-03-12T13:23:45.382Z,13.73
2023-03-12T13:27:05.994Z,19.00
2023-03-12T13:30:32.901Z,21.20
2023-03-12T13:33:45.614Z,100.63
2023-03-12T13:36:51.635Z,266.98
2023-03-12T13:39:55.043Z,369.40
2023-03-12T13:43:09.612Z,493.65
2023-03-12T13:46:35.571Z,568.88
2023-03-12T13:49:42.420Z,487.13
2023-03-12T13:52:53.906Z,408.50
2023-03-12T13:56:12.002Z,304.83
2023-03-12T13:59:18.169Z,286.77
2023-03-12T14:02:49.456Z,341.27
2023-03-12T14:06:06.767Z,531.92
2023-03-12T14:09:39.938Z,660.75
2023-03-12T14:13:14.135Z,602.25
2023-03-12T14:16:43.245Z,513.00
2023-03-12T14:19:50.895Z,452.67
2023-03-12T14:23:06.322Z,427.23
2023-03-12T14:26:32.462Z,348.05
2023-03-12T14:30:15.738Z,276.83
2023-03-12T14:33:27.724Z,283.80
2023-03-12T14:36:55.545Z,198.30
2023-03-12T14:40:04.418Z,193.05
2023-03-12T14:43:35.267Z,181.35
2023-03-12T14:47:10.461Z,146.77
2023-03-12T14:50:41.183Z,103.35
2023-03-12T14:53:44.832Z,111.03
2023-03-12T14:56:46.952Z,116.35
2023-03-12T15:00:41.654Z,101.15
2023-03-12T15:03:57.829Z,73.85
2023-03-12T15:07:05.057Z,43.47
2023-03-12T15:10:39.046Z,65.18
2023-03-12T15:13:41.551Z,32.25
2023-03-12T15:16:44.599Z,41.35
2023-03-12T15:19:49.101Z,36.73
2023-03-12T15:22:52.705Z,35.67
2023-03-12T15:26:21.633Z,40.00
2023-03-12T15:29:29.139Z,27.55
2023-03-12T15:32:32.923Z,33.38
2023-03-12T15:35:57.993Z,18.95
2023-03-12T15:39:13.694Z,25.10
2023-03-12T15:42:19.639Z,18.45
2023-03-12T15:45:25.794Z,30.45
2023-03-12T15:48:29.912Z,36.72
2023-03-12T15:51:34.630Z,19.80
2023-03-12T15:54:40.566Z,16.17
2023-03-12T15:57:48.658Z,22.15
2023-03-12T16:00:52.509Z,16.45
2023-03-12T16:03:55.605Z,11.85
2023-03-12T16:06:58.137Z,15.63
2023-03-12T16:10:00.520Z,16.45
2023-03-12T16:13:03.853Z,20.58
2023-03-12T16:16:06.688Z,22.90
2023-03-12T16:19:13.196Z,18.92
2023-03-12T16:22:15.906Z,17.17
2023-03-12T16:25:18.717Z,15.90
2023-03-12T16:31:25.649Z,18.13
2023-03-12T16:34:28.856Z,18.85
2023-03-12T16:37:32.128Z,16.38
2023-03-12T16:40:37.340Z,15.55
2023-03-12T16:43:39.779Z,17.33
2023-03-12T16:46:42.309Z,19.95
2023-03-12T16:49:44.764Z,14.98
2023-03-12T16:52:48.172Z,37.22
2023-03-12T16:55:54.060Z,40.38
2023-03-12T16:59:05.373Z,26.48
2023-03-12T17:02:17.956Z,27.77
2023-03-12T17:05:20.595Z,23.33
2023-03-12T17:08:22.612Z,22.05
2023-03-12T17:11:30.839Z,22.05
2023-03-12T17:14:37.460Z,26.08
2023-03-12T17:17:40.455Z,24.83
2023-03-12T17:20:49.488Z,19.02
2023-03-12T17:23:51.960Z,18.60
2023-03-12T17:26:53.994Z,17.00
2023-03-12T17:29:56.275Z,18.08
2023-03-12T17:33:07.367Z,17.90
2023-03-12T17:36:10.369Z,14.93
2023-03-12T17:39:12.402Z,16.85
2023-03-12T17:42:14.739Z,20.60
2023-03-12T17:45:17.102Z,20.27
2023-03-12T17:48:19.830Z,15.95
2023-03-12T17:51:22.010Z,17.40
2023-03-12T17:54:24.480Z,24.73
2023-03-12T17:57:27.402Z,19.92
2023-03-12T18:00:30.610Z,21.08
2023-03-12T18:03:38.519Z,25.63
2023-03-12T18:06:41.354Z,18.00
2023-03-12T18:09:43.613Z,15.25
2023-03-12T18:12:46.583Z,19.70
2023-03-12T18:15:54.391Z,14.82
2023-03-12T18:18:57.936Z,19.92
2023-03-12T18:22:00.312Z,21.25
2023-03-12T18:25:04.044Z,19.10
2023-03-12T18:28:06.807Z,26.02
2023-03-12T18:31:09.953Z,17.13
2023-03-12T18:34:12.002Z,14.65
2023-03-12T18:37:14.547Z,15.32
2023-03-12T18:40:16.710Z,16.77
2023-03-12T18:43:21.675Z,18.00
2023-03-12T18:46:25.134Z,17.27
2023-03-12T18:49:28.238Z,15.03
2023-03-12T18:52:30.533Z,19.55
2023-03-12T18:55:32.936Z,15.93
2023-03-12T18:58:35.825Z,20.20
2023-03-12T19:01:38.068Z,12.25
2023-03-12T19:04:42.994Z,21.95
2023-03-12T19:07:46.323Z,19.95
2023-03-12T19:11:12.430Z,15.13
2023-03-12T19:14:15.589Z,17.02
2023-03-12T19:17:18.348Z,10.38
2023-03-12T19:20:21.372Z,14.27
2023-03-12T19:23:23.868Z,17.23
2023-03-12T19:26:26.406Z,13.82
2023-03-12T19:29:31.602Z,11.43
2023-03-12T19:32:43.312Z,13.02
2023-03-12T19:35:46.407Z,10.05
2023-03-12T19:38:49.249Z,9.50
2023-03-12T19:41:51.240Z,9.52
2023-03-12T19:44:53.679Z,10.27
2023-03-12T19:47:55.947Z,10.45
2023-03-12T19:51:04.349Z,8.75
2023-03-12T19:54:06.358Z,14.07
2023-03-12T19:57:08.800Z,15.20
2023-03-12T20:00:12.372Z,15.80
2023-03-12T20:03:14.900Z,13.52
2023-03-12T20:06:16.944Z,15.05
2023-03-12T20:09:19.370Z,24.15
2023-03-12T20:12:21.576Z,16.85
2023-03-12T20:15:24.043Z,17.58
2023-03-12T20:18:26.173Z,9.68
2023-03-12T20:21:30.246Z,15.80
2023-03-12T20:24:32.923Z,12.75
2023-03-12T20:27:35.340Z,12.27
2023-03-12T20:30:40.619Z,8.27
2023-03-12T20:33:43.196Z,9.07
2023-03-12T20:36:45.085Z,9.63
2023-03-12T20:39:47.467Z,14.15
2023-03-12T20:42:49.746Z,15.05
2023-03-12T20:45:52.174Z,13.00
2023-03-12T20:48:56.622Z,15.13
2023-03-12T20:52:02.255Z,9.55
2023-03-12T20:55:05.048Z,12.43
2023-03-12T20:58:07.615Z,8.27
2023-03-12T21:01:10.658Z,10.52
2023-03-12T21:04:13.015Z,7.78
2023-03-12T21:07:16.554Z,12.80
2023-03-12T21:10:19.010Z,9.18
2023-03-12T21:13:23.759Z,11.40
2023-03-12T21:16:26.219Z,8.23
2023-03-12T21:19:31.279Z,14.05
2023-03-12T21:22:33.802Z,7.55
2023-03-12T21:25:37.407Z,8.95
2023-03-12T21:28:39.840Z,8.18
2023-03-12T21:31:41.995Z,7.60
2023-03-12T21:34:44.574Z,9.25
2023-03-12T21:37:46.851Z,13.75
2023-03-12T21:40:49.107Z,11.88
2023-03-12T21:43:51.166Z,15.80
2023-03-12T21:46:53.580Z,10.65
2023-03-12T21:49:55.672Z,9.70
2023-03-12T21:52:58.218Z,8.43
2023-03-12T21:56:01.630Z,8.55
2023-03-12T21:59:04.163Z,6.18
2023-03-12T22:02:07.005Z,5.32
2023-03-12T22:05:10.094Z,6.35
2023-03-12T22:08:12.152Z,19.58
2023-03-12T22:11:15.377Z,6.72
2023-03-12T22:14:17.675Z,11.02
2023-03-12T22:17:20.165Z,6.53
2023-03-12T22:20:22.404Z,16.00
2023-03-12T22:23:25.704Z,10.35
2023-03-12T22:26:28.569Z,9.43
2023-03-12T22:29:31.010Z,17.48
2023-03-12T22:32:33.310Z,12.00
2023-03-12T22:35:42.585Z,6.90
2023-03-12T22:38:45.279Z,15.77
2023-03-12T22:41:50.800Z,11.13
2023-03-12T22:44:52.952Z,12.02
2023-03-12T22:47:55.272Z,14.25
2023-03-12T22:50:57.419Z,8.88
2023-03-12T22:54:00.571Z,5.97
2023-03-12T22:57:02.793Z,15.15
2023-03-12T23:00:10.502Z,11.65
2023-03-12T23:03:12.515Z,14.25
2023-03-12T23:06:17.492Z,11.60
2023-03-12T23:09:19.652Z,10.48
2023-03-12T23:12:22.263Z,8.13
2023-03-12T23:15:29.095Z,10.82
2023-03-12T23:18:38.929Z,12.50
2023-03-12T23:21:43.309Z,9.87
2023-03-12T23:27:47.518Z,16.00
2023-03-12T23:31:01.989Z,15.13
2023-03-12T23:34:04.801Z,11.60
2023-03-12T23:37:07.670Z,11.38
2023-03-12T23:40:11.317Z,10.25
2023-03-12T23:43:13.728Z,12.60
2023-03-12T23:46:17.238Z,11.82
2023-03-12T23:49:19.700Z,17.65
2023-03-12T23:52:21.691Z,20.85
2023-03-12T23:55:23.912Z,11.48
2023-03-12T23:58:26.641Z,7.13
